sensor_id;sensor_type;location;lat;lon;timestamp;pressure;altitude;pressure_sealevel;temperature;humidity
10700;BME280;5401;41.986;21.452;2023-03-22T00:01:11;98070.34;;;11.97;83.71
10700;BME280;5401;41.986;21.452;2023-03-22T00:03:39;98092.25;;;12.12;84.05
10700;BME280;5401;41.986;21.452;2023-03-22T00:06:08;98101.09;;;12.12;83.95
10700;BME280;5401;41.986;21.452;2023-03-22T00:08:37;98090.00;;;12.09;84.05
10700;BME280;5401;41.986;21.452;2023-03-22T00:11:06;98094.78;;;12.07;83.71
10700;BME280;5401;41.986;21.452;2023-03-22T00:13:34;98103.28;;;12.04;84.32
10700;BME280;5401;41.986;21.452;2023-03-22T00:16:03;98085.16;;;12.00;84.20
10700;BME280;5401;41.986;21.452;2023-03-22T00:18:31;98087.19;;;12.04;84.31
10700;BME280;5401;41.986;21.452;2023-03-22T00:20:59;98092.19;;;12.01;84.45
10700;BME280;5401;41.986;21.452;2023-03-22T00:23:27;98089.97;;;11.98;84.60
10700;BME280;5401;41.986;21.452;2023-03-22T00:25:56;98083.91;;;12.02;84.50
10700;BME280;5401;41.986;21.452;2023-03-22T00:28:24;98082.63;;;12.05;84.21
10700;BME280;5401;41.986;21.452;2023-03-22T00:30:53;98088.13;;;12.10;84.00
10700;BME280;5401;41.986;21.452;2023-03-22T00:33:21;98077.75;;;12.13;84.15
10700;BME280;5401;41.986;21.452;2023-03-22T00:35:50;98076.34;;;12.11;84.70
10700;BME280;5401;41.986;21.452;2023-03-22T00:38:18;98092.38;;;12.17;84.21
10700;BME280;5401;41.986;21.452;2023-03-22T00:40:47;98090.28;;;12.19;84.21
10700;BME280;5401;41.986;21.452;2023-03-22T00:43:16;98087.97;;;12.22;84.27
10700;BME280;5401;41.986;21.452;2023-03-22T00:45:44;98082.81;;;12.21;84.17
10700;BME280;5401;41.986;21.452;2023-03-22T00:48:11;98095.31;;;12.27;84.42
10700;BME280;5401;41.986;21.452;2023-03-22T00:50:39;98072.28;;;12.19;83.30
10700;BME280;5401;41.986;21.452;2023-03-22T00:53:07;98095.31;;;12.27;83.59
10700;BME280;5401;41.986;21.452;2023-03-22T00:55:35;98095.31;;;12.27;83.30
10700;BME280;5401;41.986;21.452;2023-03-22T00:58:02;98094.03;;;12.29;83.93
10700;BME280;5401;41.986;21.452;2023-03-22T01:00:32;98087.84;;;12.29;83.29
10700;BME280;5401;41.986;21.452;2023-03-22T01:02:59;98089.13;;;12.26;83.28
10700;BME280;5401;41.986;21.452;2023-03-22T01:05:30;98088.97;;;12.21;82.84
10700;BME280;5401;41.986;21.452;2023-03-22T01:07:59;98100.31;;;12.23;83.55
10700;BME280;5401;41.986;21.452;2023-03-22T01:10:31;98095.75;;;12.24;83.63
10700;BME280;5401;41.986;21.452;2023-03-22T01:12:59;98088.28;;;12.26;83.09
10700;BME280;5401;41.986;21.452;2023-03-22T01:15:26;98074.44;;;12.29;83.47
10700;BME280;5401;41.986;21.452;2023-03-22T01:17:55;98075.59;;;12.33;82.81
10700;BME280;5401;41.986;21.452;2023-03-22T01:20:23;98078.88;;;12.35;83.06
10700;BME280;5401;41.986;21.452;2023-03-22T01:22:51;98078.41;;;12.38;82.22
10700;BME280;5401;41.986;21.452;2023-03-22T01:25:19;98073.63;;;12.40;82.81
10700;BME280;5401;41.986;21.452;2023-03-22T01:27:47;98083.09;;;12.42;82.43
10700;BME280;5401;41.986;21.452;2023-03-22T01:30:14;98075.88;;;12.43;82.08
10700;BME280;5401;41.986;21.452;2023-03-22T01:32:42;98083.66;;;12.44;82.10
10700;BME280;5401;41.986;21.452;2023-03-22T01:35:11;98082.63;;;12.45;82.10
10700;BME280;5401;41.986;21.452;2023-03-22T01:37:39;98076.69;;;12.43;81.79
10700;BME280;5401;41.986;21.452;2023-03-22T01:40:09;98073.19;;;12.43;81.92
10700;BME280;5401;41.986;21.452;2023-03-22T01:42:37;98082.06;;;12.43;82.50
10700;BME280;5401;41.986;21.452;2023-03-22T01:45:32;98079.25;;;12.38;81.69
10700;BME280;5401;41.986;21.452;2023-03-22T01:48:04;98078.88;;;12.35;81.40
10700;BME280;5401;41.986;21.452;2023-03-22T01:50:36;98077.56;;;12.26;81.65
10700;BME280;5401;41.986;21.452;2023-03-22T01:53:04;98081.22;;;12.02;82.66
10700;BME280;5401;41.986;21.452;2023-03-22T01:55:34;98076.72;;;11.85;83.00
10700;BME280;5401;41.986;21.452;2023-03-22T01:58:02;98064.78;;;11.70;83.25
10700;BME280;5401;41.986;21.452;2023-03-22T02:00:31;98083.06;;;11.73;83.14
10700;BME280;5401;41.986;21.452;2023-03-22T02:02:59;98085.84;;;11.66;83.30
10700;BME280;5401;41.986;21.452;2023-03-22T02:05:27;98095.31;;;11.69;83.24
10700;BME280;5401;41.986;21.452;2023-03-22T02:07:57;98093.22;;;11.71;83.59
10700;BME280;5401;41.986;21.452;2023-03-22T02:10:26;98096.41;;;11.61;84.23
10700;BME280;5401;41.986;21.452;2023-03-22T02:13:03;98094.31;;;11.63;84.29
10700;BME280;5401;41.986;21.452;2023-03-22T02:15:36;98107.50;;;11.65;84.17
10700;BME280;5401;41.986;21.452;2023-03-22T02:18:20;98106.41;;;11.54;84.30
10700;BME280;5401;41.986;21.452;2023-03-22T02:24:22;98103.22;;;11.46;84.88
10700;BME280;5401;41.986;21.452;2023-03-22T02:29:54;98104.25;;;11.63;85.21
10700;BME280;5401;41.986;21.452;2023-03-22T02:33:01;98109.91;;;11.73;84.53
10700;BME280;5401;41.986;21.452;2023-03-22T02:35:42;98116.22;;;11.78;84.75
10700;BME280;5401;41.986;21.452;2023-03-22T02:38:28;98111.22;;;11.81;85.07
10700;BME280;5401;41.986;21.452;2023-03-22T02:41:10;98106.00;;;11.86;84.88
10700;BME280;5401;41.986;21.452;2023-03-22T02:43:43;98101.66;;;11.85;84.40
10700;BME280;5401;41.986;21.452;2023-03-22T02:46:18;98104.50;;;11.90;84.18
10700;BME280;5401;41.986;21.452;2023-03-22T02:48:52;98112.34;;;11.92;84.30
10700;BME280;5401;41.986;21.452;2023-03-22T02:51:28;98109.66;;;11.92;83.68
10700;BME280;5401;41.986;21.452;2023-03-22T02:54:01;98105.69;;;11.94;84.30
10700;BME280;5401;41.986;21.452;2023-03-22T02:56:34;98102.78;;;11.96;83.85
10700;BME280;5401;41.986;21.452;2023-03-22T02:59:05;98111.06;;;11.94;84.14
10700;BME280;5401;41.986;21.452;2023-03-22T03:01:38;98115.53;;;12.00;83.32
10700;BME280;5401;41.986;21.452;2023-03-22T03:04:09;98110.16;;;12.00;83.94
10700;BME280;5401;41.986;21.452;2023-03-22T03:06:42;98113.06;;;11.99;83.40
10700;BME280;5401;41.986;21.452;2023-03-22T03:09:12;98116.94;;;12.03;83.13
10700;BME280;5401;41.986;21.452;2023-03-22T03:11:46;98113.44;;;12.02;83.43
10700;BME280;5401;41.986;21.452;2023-03-22T03:14:22;98115.88;;;12.04;82.93
10700;BME280;5401;41.986;21.452;2023-03-22T03:17:08;98125.78;;;12.03;82.89
10700;BME280;5401;41.986;21.452;2023-03-22T03:19:41;98122.28;;;12.03;83.17
10700;BME280;5401;41.986;21.452;2023-03-22T03:22:24;98122.88;;;12.05;83.55
10700;BME280;5401;41.986;21.452;2023-03-22T03:25:00;98128.03;;;12.06;82.73
10700;BME280;5401;41.986;21.452;2023-03-22T03:27:38;98120.56;;;12.08;82.51
10700;BME280;5401;41.986;21.452;2023-03-22T03:30:11;98125.94;;;12.08;83.24
10700;BME280;5401;41.986;21.452;2023-03-22T03:32:44;98127.56;;;12.09;82.72
10700;BME280;5401;41.986;21.452;2023-03-22T03:35:16;98131.91;;;12.10;82.59
10700;BME280;5401;41.986;21.452;2023-03-22T03:37:50;98125.94;;;12.08;82.57
10700;BME280;5401;41.986;21.452;2023-03-22T03:40:22;98125.94;;;12.08;82.50
10700;BME280;5401;41.986;21.452;2023-03-22T03:42:55;98122.41;;;12.08;82.72
10700;BME280;5401;41.986;21.452;2023-03-22T03:45:24;98107.38;;;12.07;83.02
10700;BME280;5401;41.986;21.452;2023-03-22T03:47:56;98102.31;;;11.99;82.52
10700;BME280;5401;41.986;21.452;2023-03-22T03:50:25;98112.69;;;11.95;82.81
10700;BME280;5401;41.986;21.452;2023-03-22T03:52:54;98118.00;;;11.84;82.94
10700;BME280;5401;41.986;21.452;2023-03-22T03:55:23;98115.25;;;11.73;83.15
10700;BME280;5401;41.986;21.452;2023-03-22T03:57:50;98114.06;;;11.69;83.16
10700;BME280;5401;41.986;21.452;2023-03-22T04:00:19;98118.53;;;11.57;82.83
10700;BME280;5401;41.986;21.452;2023-03-22T04:02:47;98126.28;;;11.47;82.94
10700;BME280;5401;41.986;21.452;2023-03-22T04:05:15;98124.31;;;11.36;83.35
10700;BME280;5401;41.986;21.452;2023-03-22T04:07:42;98133.47;;;11.29;83.36
10700;BME280;5401;41.986;21.452;2023-03-22T04:10:10;98127.97;;;11.24;83.81
10700;BME280;5401;41.986;21.452;2023-03-22T04:12:37;98130.84;;;11.22;83.96
10700;BME280;5401;41.986;21.452;2023-03-22T04:15:06;98135.19;;;11.23;84.19
10700;BME280;5401;41.986;21.452;2023-03-22T04:17:35;98131.31;;;11.19;84.50
10700;BME280;5401;41.986;21.452;2023-03-22T04:20:03;98140.78;;;11.22;84.62
10700;BME280;5401;41.986;21.452;2023-03-22T04:22:32;98143.00;;;11.25;84.74
10700;BME280;5401;41.986;21.452;2023-03-22T04:25:00;98139.44;;;11.31;84.99
10700;BME280;5401;41.986;21.452;2023-03-22T04:27:27;98137.13;;;11.34;84.66
10700;BME280;5401;41.986;21.452;2023-03-22T04:29:55;98154.78;;;11.41;84.86
10700;BME280;5401;41.986;21.452;2023-03-22T04:32:23;98146.09;;;11.46;84.61
10700;BME280;5401;41.986;21.452;2023-03-22T04:34:54;98148.31;;;11.49;84.72
10700;BME280;5401;41.986;21.452;2023-03-22T04:37:21;98160.25;;;11.53;84.57
10700;BME280;5401;41.986;21.452;2023-03-22T04:39:52;98153.19;;;11.58;84.86
10700;BME280;5401;41.986;21.452;2023-03-22T04:42:19;98155.19;;;11.63;85.12
10700;BME280;5401;41.986;21.452;2023-03-22T04:44:47;98148.56;;;11.65;85.17
10700;BME280;5401;41.986;21.452;2023-03-22T04:47:14;98149.41;;;11.66;85.21
10700;BME280;5401;41.986;21.452;2023-03-22T04:49:43;98146.25;;;11.69;85.53
10700;BME280;5401;41.986;21.452;2023-03-22T04:52:12;98150.94;;;11.73;85.28
10700;BME280;5401;41.986;21.452;2023-03-22T04:54:39;98145.13;;;11.76;85.14
10700;BME280;5401;41.986;21.452;2023-03-22T04:57:07;98153.53;;;11.79;84.74
10700;BME280;5401;41.986;21.452;2023-03-22T04:59:34;98148.75;;;11.81;85.10
10700;BME280;5401;41.986;21.452;2023-03-22T05:02:02;98158.47;;;11.82;84.93
10700;BME280;5401;41.986;21.452;2023-03-22T05:04:29;98160.56;;;11.80;84.82
10700;BME280;5401;41.986;21.452;2023-03-22T05:06:57;98157.50;;;11.77;85.60
10700;BME280;5401;41.986;21.452;2023-03-22T05:09:26;98170.47;;;11.80;85.37
10700;BME280;5401;41.986;21.452;2023-03-22T05:11:53;98172.31;;;11.79;85.76
10700;BME280;5401;41.986;21.452;2023-03-22T05:14:21;98168.59;;;11.80;85.74
10700;BME280;5401;41.986;21.452;2023-03-22T05:16:49;98178.88;;;11.83;85.90
10700;BME280;5401;41.986;21.452;2023-03-22T05:19:16;98171.41;;;11.85;85.36
10700;BME280;5401;41.986;21.452;2023-03-22T05:21:48;98170.75;;;11.90;85.30
10700;BME280;5401;41.986;21.452;2023-03-22T05:24:22;98154.13;;;11.81;85.40
10700;BME280;5401;41.986;21.452;2023-03-22T05:26:51;98169.03;;;11.95;85.50
10700;BME280;5401;41.986;21.452;2023-03-22T05:29:19;98179.53;;;11.97;85.44
10700;BME280;5401;41.986;21.452;2023-03-22T05:31:47;98177.44;;;11.99;86.16
10700;BME280;5401;41.986;21.452;2023-03-22T05:34:15;98177.44;;;11.99;85.42
10700;BME280;5401;41.986;21.452;2023-03-22T05:36:42;98162.63;;;11.96;85.89
10700;BME280;5401;41.986;21.452;2023-03-22T05:39:10;98174.88;;;12.04;85.53
10700;BME280;5401;41.986;21.452;2023-03-22T05:41:37;98175.06;;;12.09;85.48
10700;BME280;5401;41.986;21.452;2023-03-22T05:44:06;98182.41;;;12.13;85.24
10700;BME280;5401;41.986;21.452;2023-03-22T05:46:33;98183.59;;;12.17;85.83
10700;BME280;5401;41.986;21.452;2023-03-22T05:49:01;98183.16;;;12.20;85.69
10700;BME280;5401;41.986;21.452;2023-03-22T05:51:28;98187.78;;;12.13;85.16
10700;BME280;5401;41.986;21.452;2023-03-22T05:53:56;98182.88;;;12.10;85.65
10700;BME280;5401;41.986;21.452;2023-03-22T05:56:23;98186.38;;;12.11;86.36
10700;BME280;5401;41.986;21.452;2023-03-22T05:58:51;98170.38;;;12.04;85.62
10700;BME280;5401;41.986;21.452;2023-03-22T06:01:20;98193.91;;;12.20;85.73
10700;BME280;5401;41.986;21.452;2023-03-22T06:03:48;98156.13;;;12.04;85.53
10700;BME280;5401;41.986;21.452;2023-03-22T06:06:16;98196.03;;;12.29;85.71
10700;BME280;5401;41.986;21.452;2023-03-22T06:08:43;98193.03;;;12.37;85.12
10700;BME280;5401;41.986;21.452;2023-03-22T06:11:11;98191.53;;;12.41;85.78
10700;BME280;5401;41.986;21.452;2023-03-22T06:13:38;98204.50;;;12.44;85.37
10700;BME280;5401;41.986;21.452;2023-03-22T06:16:06;98205.91;;;12.47;85.49
10700;BME280;5401;41.986;21.452;2023-03-22T06:18:35;98206.63;;;12.53;84.65
10700;BME280;5401;41.986;21.452;2023-03-22T06:21:03;98204.22;;;12.63;84.86
10700;BME280;5401;41.986;21.452;2023-03-22T06:23:30;98201.91;;;12.67;84.42
10700;BME280;5401;41.986;21.452;2023-03-22T06:25:58;98198.75;;;12.70;85.01
10700;BME280;5401;41.986;21.452;2023-03-22T06:28:26;98212.91;;;12.77;84.59
10700;BME280;5401;41.986;21.452;2023-03-22T06:30:54;98197.84;;;12.76;84.56
10700;BME280;5401;41.986;21.452;2023-03-22T06:33:22;98205.13;;;12.86;84.32
10700;BME280;5401;41.986;21.452;2023-03-22T06:35:51;98214.63;;;12.89;84.07
10700;BME280;5401;41.986;21.452;2023-03-22T06:38:18;98202.00;;;12.89;84.70
10700;BME280;5401;41.986;21.452;2023-03-22T06:40:46;98209.72;;;12.97;84.42
10700;BME280;5401;41.986;21.452;2023-03-22T06:43:14;98218.59;;;12.98;83.88
10700;BME280;5401;41.986;21.452;2023-03-22T06:45:42;98216.16;;;13.08;84.14
10700;BME280;5401;41.986;21.452;2023-03-22T06:48:09;98218.75;;;13.14;84.02
10700;BME280;5401;41.986;21.452;2023-03-22T06:50:37;98208.72;;;13.21;84.35
10700;BME280;5401;41.986;21.452;2023-03-22T06:53:08;98226.81;;;13.37;83.19
10700;BME280;5401;41.986;21.452;2023-03-22T06:55:35;98214.78;;;13.51;84.15
10700;BME280;5401;41.986;21.452;2023-03-22T06:58:03;98216.91;;;13.49;83.44
10700;BME280;5401;41.986;21.452;2023-03-22T07:00:30;98218.53;;;13.50;83.51
10700;BME280;5401;41.986;21.452;2023-03-22T07:02:59;98210.47;;;13.50;83.47
10700;BME280;5401;41.986;21.452;2023-03-22T07:05:27;98217.84;;;13.65;82.69
10700;BME280;5401;41.986;21.452;2023-03-22T07:07:54;98222.63;;;13.75;83.14
10700;BME280;5401;41.986;21.452;2023-03-22T07:10:23;98222.97;;;13.78;82.23
10700;BME280;5401;41.986;21.452;2023-03-22T07:12:51;98211.75;;;13.70;82.37
10700;BME280;5401;41.986;21.452;2023-03-22T07:15:18;98219.13;;;13.86;81.65
10700;BME280;5401;41.986;21.452;2023-03-22T07:17:49;98224.69;;;13.95;81.33
10700;BME280;5401;41.986;21.452;2023-03-22T07:20:17;98218.28;;;14.08;82.15
10700;BME280;5401;41.986;21.452;2023-03-22T07:22:48;98224.69;;;14.18;81.64
10700;BME280;5401;41.986;21.452;2023-03-22T07:25:16;98215.84;;;14.34;81.21
10700;BME280;5401;41.986;21.452;2023-03-22T07:27:50;98220.84;;;14.53;80.90
10700;BME280;5401;41.986;21.452;2023-03-22T07:30:18;98223.34;;;14.71;80.34
10700;BME280;5401;41.986;21.452;2023-03-22T07:32:46;98224.56;;;14.80;80.26
10700;BME280;5401;41.986;21.452;2023-03-22T07:35:13;98223.22;;;14.66;79.06
10700;BME280;5401;41.986;21.452;2023-03-22T07:37:43;98224.44;;;14.59;79.38
10700;BME280;5401;41.986;21.452;2023-03-22T07:40:11;98219.91;;;14.48;79.33
10700;BME280;5401;41.986;21.452;2023-03-22T07:42:39;98222.16;;;14.39;79.87
10700;BME280;5401;41.986;21.452;2023-03-22T07:45:09;98206.81;;;14.40;79.85
10700;BME280;5401;41.986;21.452;2023-03-22T07:47:36;98224.63;;;14.41;80.09
10700;BME280;5401;41.986;21.452;2023-03-22T07:50:07;98216.47;;;14.52;80.35
10700;BME280;5401;41.986;21.452;2023-03-22T07:52:36;98219.91;;;14.75;79.49
10700;BME280;5401;41.986;21.452;2023-03-22T07:55:11;98222.88;;;14.90;79.92
10700;BME280;5401;41.986;21.452;2023-03-22T07:57:39;98192.06;;;14.86;78.94
10700;BME280;5401;41.986;21.452;2023-03-22T08:00:10;98222.06;;;15.17;78.83
10700;BME280;5401;41.986;21.452;2023-03-22T08:02:42;98221.34;;;15.10;78.70
10700;BME280;5401;41.986;21.452;2023-03-22T08:05:10;98219.59;;;15.16;78.35
10700;BME280;5401;41.986;21.452;2023-03-22T08:07:40;98232.00;;;15.17;78.00
10700;BME280;5401;41.986;21.452;2023-03-22T08:10:08;98191.19;;;14.97;78.14
10700;BME280;5401;41.986;21.452;2023-03-22T08:12:36;98231.72;;;15.02;77.42
10700;BME280;5401;41.986;21.452;2023-03-22T08:15:04;98220.00;;;14.80;77.70
10700;BME280;5401;41.986;21.452;2023-03-22T08:17:33;98225.66;;;14.79;77.91
10700;BME280;5401;41.986;21.452;2023-03-22T08:20:01;98225.88;;;14.77;78.03
10700;BME280;5401;41.986;21.452;2023-03-22T08:22:33;98227.06;;;14.70;77.45
10700;BME280;5401;41.986;21.452;2023-03-22T08:25:01;98231.22;;;14.61;77.62
10700;BME280;5401;41.986;21.452;2023-03-22T08:27:32;98215.59;;;14.47;78.39
10700;BME280;5401;41.986;21.452;2023-03-22T08:30:00;98227.16;;;14.59;78.07
10700;BME280;5401;41.986;21.452;2023-03-22T08:32:28;98224.69;;;14.57;77.55
10700;BME280;5401;41.986;21.452;2023-03-22T08:34:58;98226.50;;;14.68;77.47
10700;BME280;5401;41.986;21.452;2023-03-22T08:37:26;98230.78;;;14.80;77.62
10700;BME280;5401;41.986;21.452;2023-03-22T08:39:53;98228.03;;;14.92;77.28
10700;BME280;5401;41.986;21.452;2023-03-22T08:42:21;98235.09;;;15.09;77.10
10700;BME280;5401;41.986;21.452;2023-03-22T08:44:48;98221.31;;;15.22;76.36
10700;BME280;5401;41.986;21.452;2023-03-22T08:47:19;98230.91;;;15.45;75.96
10700;BME280;5401;41.986;21.452;2023-03-22T08:49:48;98223.34;;;15.64;75.31
10700;BME280;5401;41.986;21.452;2023-03-22T08:52:16;98223.81;;;15.77;74.94
10700;BME280;5401;41.986;21.452;2023-03-22T08:54:47;98230.72;;;15.89;74.11
10700;BME280;5401;41.986;21.452;2023-03-22T08:57:19;98234.72;;;16.03;73.71
10700;BME280;5401;41.986;21.452;2023-03-22T08:59:49;98243.09;;;16.18;73.27
10700;BME280;5401;41.986;21.452;2023-03-22T09:02:18;98234.28;;;16.27;73.13
10700;BME280;5401;41.986;21.452;2023-03-22T09:04:50;98232.22;;;16.34;72.94
10700;BME280;5401;41.986;21.452;2023-03-22T09:07:21;98230.19;;;16.25;72.92
10700;BME280;5401;41.986;21.452;2023-03-22T09:09:50;98207.03;;;16.12;71.99
10700;BME280;5401;41.986;21.452;2023-03-22T09:12:17;98236.16;;;16.27;71.89
10700;BME280;5401;41.986;21.452;2023-03-22T09:14:45;98225.97;;;16.34;72.21
10700;BME280;5401;41.986;21.452;2023-03-22T09:17:14;98225.16;;;16.33;71.20
10700;BME280;5401;41.986;21.452;2023-03-22T09:19:43;98232.84;;;16.20;71.41
10700;BME280;5401;41.986;21.452;2023-03-22T09:22:13;98226.69;;;16.08;71.31
10700;BME280;5401;41.986;21.452;2023-03-22T09:24:42;98232.25;;;16.02;71.10
10700;BME280;5401;41.986;21.452;2023-03-22T09:27:12;98231.16;;;15.98;70.89
10700;BME280;5401;41.986;21.452;2023-03-22T09:29:39;98223.78;;;15.93;70.56
10700;BME280;5401;41.986;21.452;2023-03-22T09:32:07;98237.84;;;15.95;70.86
10700;BME280;5401;41.986;21.452;2023-03-22T09:34:35;98223.63;;;15.83;70.58
10700;BME280;5401;41.986;21.452;2023-03-22T09:37:02;98225.53;;;15.83;70.96
10700;BME280;5401;41.986;21.452;2023-03-22T09:39:31;98224.75;;;15.87;70.98
10700;BME280;5401;41.986;21.452;2023-03-22T09:42:01;98229.69;;;15.90;70.69
10700;BME280;5401;41.986;21.452;2023-03-22T09:44:33;98235.72;;;15.97;70.27
10700;BME280;5401;41.986;21.452;2023-03-22T09:47:04;98232.53;;;16.00;70.07
10700;BME280;5401;41.986;21.452;2023-03-22T09:49:35;98230.81;;;15.94;70.23
10700;BME280;5401;41.986;21.452;2023-03-22T09:52:11;98238.16;;;15.99;70.11
10700;BME280;5401;41.986;21.452;2023-03-22T09:54:41;98242.34;;;16.06;70.05
10700;BME280;5401;41.986;21.452;2023-03-22T09:57:20;98235.94;;;16.12;69.50
10700;BME280;5401;41.986;21.452;2023-03-22T09:59:54;98229.81;;;16.16;69.02
10700;BME280;5401;41.986;21.452;2023-03-22T10:02:38;98229.09;;;16.26;69.23
10700;BME280;5401;41.986;21.452;2023-03-22T10:05:15;98229.50;;;16.34;68.28
10700;BME280;5401;41.986;21.452;2023-03-22T10:10:50;98220.94;;;16.42;68.27
10700;BME280;5401;41.986;21.452;2023-03-22T10:13:23;98222.63;;;16.48;67.56
10700;BME280;5401;41.986;21.452;2023-03-22T10:15:57;98226.97;;;16.49;67.47
10700;BME280;5401;41.986;21.452;2023-03-22T10:18:31;98230.50;;;16.49;67.04
10700;BME280;5401;41.986;21.452;2023-03-22T10:21:01;98230.44;;;16.44;67.28
10700;BME280;5401;41.986;21.452;2023-03-22T10:23:34;98220.66;;;16.39;66.98
10700;BME280;5401;41.986;21.452;2023-03-22T10:26:05;98216.38;;;16.42;67.03
10700;BME280;5401;41.986;21.452;2023-03-22T10:28:37;98218.22;;;16.42;66.82
10700;BME280;5401;41.986;21.452;2023-03-22T10:31:11;98224.72;;;16.41;66.45
10700;BME280;5401;41.986;21.452;2023-03-22T10:33:41;98226.53;;;16.36;66.77
10700;BME280;5401;41.986;21.452;2023-03-22T10:36:17;98220.00;;;16.32;66.02
10700;BME280;5401;41.986;21.452;2023-03-22T10:38:49;98197.16;;;16.18;66.04
10700;BME280;5401;41.986;21.452;2023-03-22T10:41:19;98218.13;;;16.32;65.69
10700;BME280;5401;41.986;21.452;2023-03-22T10:43:52;98193.63;;;16.17;65.35
10700;BME280;5401;41.986;21.452;2023-03-22T10:46:24;98208.13;;;16.33;65.86
10700;BME280;5401;41.986;21.452;2023-03-22T10:48:55;98205.50;;;16.38;65.02
10700;BME280;5401;41.986;21.452;2023-03-22T10:51:31;98200.66;;;16.40;65.40
10700;BME280;5401;41.986;21.452;2023-03-22T10:54:01;98201.28;;;16.46;65.30
10700;BME280;5401;41.986;21.452;2023-03-22T10:56:30;98200.53;;;16.51;64.83
10700;BME280;5401;41.986;21.452;2023-03-22T10:58:59;98196.03;;;16.61;64.97
10700;BME280;5401;41.986;21.452;2023-03-22T11:01:28;98192.06;;;16.69;63.89
10700;BME280;5401;41.986;21.452;2023-03-22T11:03:59;98185.91;;;16.73;63.91
10700;BME280;5401;41.986;21.452;2023-03-22T11:06:32;98186.22;;;16.77;63.73
10700;BME280;5401;41.986;21.452;2023-03-22T11:09:10;98191.41;;;16.83;63.99
10700;BME280;5401;41.986;21.452;2023-03-22T11:11:45;98180.84;;;16.81;63.02
10700;BME280;5401;41.986;21.452;2023-03-22T11:14:19;98182.19;;;16.79;62.88
10700;BME280;5401;41.986;21.452;2023-03-22T11:16:52;98185.44;;;16.81;63.74
10700;BME280;5401;41.986;21.452;2023-03-22T11:19:24;98187.13;;;16.87;62.98
10700;BME280;5401;41.986;21.452;2023-03-22T11:21:53;98169.31;;;16.91;62.68
10700;BME280;5401;41.986;21.452;2023-03-22T11:24:24;98181.03;;;17.01;62.38
10700;BME280;5401;41.986;21.452;2023-03-22T11:27:03;98173.75;;;17.07;62.24
10700;BME280;5401;41.986;21.452;2023-03-22T11:29:42;98171.38;;;17.10;61.94
10700;BME280;5401;41.986;21.452;2023-03-22T11:32:20;98171.19;;;17.16;62.75
10700;BME280;5401;41.986;21.452;2023-03-22T11:34:58;98163.06;;;17.16;61.60
10700;BME280;5401;41.986;21.452;2023-03-22T11:37:26;98159.88;;;17.19;61.19
10700;BME280;5401;41.986;21.452;2023-03-22T11:39:59;98158.78;;;17.20;60.96
10700;BME280;5401;41.986;21.452;2023-03-22T11:42:27;98145.38;;;17.35;60.76
10700;BME280;5401;41.986;21.452;2023-03-22T11:44:56;98144.44;;;17.61;60.30
10700;BME280;5401;41.986;21.452;2023-03-22T11:47:25;98155.72;;;17.89;60.86
10700;BME280;5401;41.986;21.452;2023-03-22T11:50:02;98143.63;;;18.06;60.37
10700;BME280;5401;41.986;21.452;2023-03-22T11:52:30;98147.78;;;18.19;59.07
10700;BME280;5401;41.986;21.452;2023-03-22T11:54:58;98144.53;;;18.22;59.09
10700;BME280;5401;41.986;21.452;2023-03-22T11:57:28;98143.47;;;18.27;58.72
10700;BME280;5401;41.986;21.452;2023-03-22T12:00:01;98141.59;;;18.28;58.39
10700;BME280;5401;41.986;21.452;2023-03-22T12:02:34;98135.31;;;18.27;58.65
10700;BME280;5401;41.986;21.452;2023-03-22T12:05:07;98144.03;;;18.34;58.75
10700;BME280;5401;41.986;21.452;2023-03-22T12:07:39;98139.19;;;18.46;57.72
10700;BME280;5401;41.986;21.452;2023-03-22T12:10:12;98131.63;;;18.68;57.10
10700;BME280;5401;41.986;21.452;2023-03-22T12:12:45;98142.31;;;18.99;57.11
10700;BME280;5401;41.986;21.452;2023-03-22T12:15:20;98143.09;;;19.14;57.11
10700;BME280;5401;41.986;21.452;2023-03-22T12:17:52;98144.47;;;19.31;56.17
10700;BME280;5401;41.986;21.452;2023-03-22T12:20:31;98147.44;;;19.40;56.42
10700;BME280;5401;41.986;21.452;2023-03-22T12:23:01;98141.47;;;19.43;55.71
10700;BME280;5401;41.986;21.452;2023-03-22T12:25:33;98137.66;;;19.39;55.25
10700;BME280;5401;41.986;21.452;2023-03-22T12:28:05;98140.97;;;19.21;55.31
10700;BME280;5401;41.986;21.452;2023-03-22T12:30:39;98140.66;;;19.08;55.58
10700;BME280;5401;41.986;21.452;2023-03-22T12:33:11;98147.19;;;19.07;55.45
10700;BME280;5401;41.986;21.452;2023-03-22T12:35:44;98143.38;;;19.08;55.11
10700;BME280;5401;41.986;21.452;2023-03-22T12:38:22;98137.97;;;19.08;54.61
10700;BME280;5401;41.986;21.452;2023-03-22T12:40:53;98135.25;;;19.08;54.90
10700;BME280;5401;41.986;21.452;2023-03-22T12:43:37;98127.38;;;19.06;54.85
10700;BME280;5401;41.986;21.452;2023-03-22T12:46:12;98134.19;;;19.09;54.80
10700;BME280;5401;41.986;21.452;2023-03-22T12:48:43;98125.47;;;19.12;54.39
10700;BME280;5401;41.986;21.452;2023-03-22T12:51:13;98131.72;;;19.17;54.33
10700;BME280;5401;41.986;21.452;2023-03-22T12:53:43;98112.44;;;19.19;53.95
10700;BME280;5401;41.986;21.452;2023-03-22T12:56:17;98119.78;;;19.28;53.70
10700;BME280;5401;41.986;21.452;2023-03-22T12:58:49;98121.66;;;19.32;53.60
10700;BME280;5401;41.986;21.452;2023-03-22T13:01:24;98108.94;;;19.23;53.20
10700;BME280;5401;41.986;21.452;2023-03-22T13:03:55;98117.31;;;19.27;53.03
10700;BME280;5401;41.986;21.452;2023-03-22T13:06:30;98120.84;;;19.22;53.50
10700;BME280;5401;41.986;21.452;2023-03-22T13:09:16;98118.69;;;19.19;53.11
10700;BME280;5401;41.986;21.452;2023-03-22T13:11:45;98122.22;;;19.20;52.70
10700;BME280;5401;41.986;21.452;2023-03-22T13:17:32;98114.34;;;19.23;52.64
10700;BME280;5401;41.986;21.452;2023-03-22T13:20:19;98108.63;;;19.25;52.14
10700;BME280;5401;41.986;21.452;2023-03-22T13:23:03;98115.97;;;19.29;52.29
10700;BME280;5401;41.986;21.452;2023-03-22T13:25:36;98101.03;;;19.27;52.68
10700;BME280;5401;41.986;21.452;2023-03-22T13:28:22;98106.75;;;19.20;52.03
10700;BME280;5401;41.986;21.452;2023-03-22T13:30:52;98104.03;;;19.10;52.67